createdAt,value
2018-09-03T00:00:28.538Z,5.63
2018-09-03T00:02:58.477Z,3.10
2018-09-03T00:05:27.471Z,4.43
2018-09-03T00:07:56.465Z,3.70
2018-09-03T00:10:25.475Z,4.17
2018-09-03T00:12:54.473Z,4.50
2018-09-03T00:15:23.594Z,3.37
2018-09-03T00:17:52.688Z,4.13
2018-09-03T00:20:21.744Z,3.67
2018-09-03T00:22:50.738Z,4.00
2018-09-03T00:25:19.746Z,2.77
2018-09-03T00:27:48.761Z,4.90
2018-09-03T00:30:17.802Z,3.40
2018-09-03T00:32:52.004Z,6.03
2018-09-03T00:35:26.105Z,5.37
2018-09-03T00:38:00.033Z,5.40
2018-09-03T00:40:34.288Z,7.20
2018-09-03T00:43:08.461Z,7.60
2018-09-03T00:45:42.453Z,3.70
2018-09-03T00:48:11.516Z,6.00
2018-09-03T00:50:40.516Z,6.63
2018-09-03T00:53:09.608Z,4.93
2018-09-03T00:55:38.709Z,4.23
2018-09-03T00:58:07.776Z,6.83
2018-09-03T01:00:36.808Z,5.63
2018-09-03T01:03:06.144Z,5.67
2018-09-03T01:05:35.145Z,7.40
2018-09-03T01:08:04.171Z,5.87
2018-09-03T01:10:33.152Z,3.43
2018-09-03T01:13:02.178Z,3.93
2018-09-03T01:15:31.612Z,3.73
2018-09-03T01:18:02.111Z,6.10
2018-09-03T01:20:31.800Z,4.43
2018-09-03T01:23:02.064Z,4.10
2018-09-03T01:25:31.143Z,4.10
2018-09-03T01:28:00.400Z,5.37
2018-09-03T01:30:29.391Z,7.53
2018-09-03T01:32:58.449Z,5.70
2018-09-03T01:35:27.591Z,4.93
2018-09-03T01:37:56.596Z,5.43
2018-09-03T01:40:25.646Z,6.37
2018-09-03T01:42:54.702Z,4.60
2018-09-03T01:45:23.726Z,3.97
2018-09-03T01:47:53.949Z,4.00
2018-09-03T01:50:22.939Z,5.43
2018-09-03T01:52:51.934Z,4.67
2018-09-03T01:55:20.923Z,5.50
2018-09-03T01:57:49.955Z,4.70
2018-09-03T02:00:19.011Z,4.57
2018-09-03T02:02:48.041Z,4.23
2018-09-03T02:05:17.058Z,5.67
2018-09-03T02:07:46.119Z,6.70
2018-09-03T02:10:15.216Z,7.87
2018-09-03T02:12:44.249Z,4.30
2018-09-03T02:15:13.299Z,5.80
2018-09-03T02:17:42.434Z,6.67
2018-09-03T02:20:11.569Z,5.30
2018-09-03T02:22:40.696Z,5.33
2018-09-03T02:25:09.723Z,5.77
2018-09-03T02:27:38.926Z,8.07
2018-09-03T02:30:08.142Z,7.03
2018-09-03T02:32:37.130Z,5.83
2018-09-03T02:35:06.255Z,6.60
2018-09-03T02:37:36.062Z,5.83
2018-09-03T02:40:05.220Z,4.60
2018-09-03T02:42:35.328Z,4.73
2018-09-03T02:45:04.520Z,8.90
2018-09-03T02:47:33.565Z,5.43
2018-09-03T02:50:02.593Z,6.53
2018-09-03T02:52:32.962Z,6.37
2018-09-03T02:55:02.006Z,7.30
2018-09-03T02:57:31.299Z,6.87
2018-09-03T03:00:00.315Z,6.77
2018-09-03T03:02:29.420Z,7.43
2018-09-03T03:04:58.519Z,7.23
2018-09-03T03:07:27.532Z,6.83
2018-09-03T03:09:56.542Z,6.67
2018-09-03T03:12:26.259Z,4.90
2018-09-03T03:14:57.393Z,6.23
2018-09-03T03:17:26.573Z,10.27
2018-09-03T03:19:56.699Z,6.33
2018-09-03T03:22:26.072Z,7.87
2018-09-03T03:24:55.167Z,7.33
2018-09-03T03:27:24.205Z,5.03
2018-09-03T03:29:53.261Z,7.60
2018-09-03T03:32:22.428Z,6.43
2018-09-03T03:34:52.369Z,7.77
2018-09-03T03:37:21.440Z,9.83
2018-09-03T03:39:50.516Z,8.30
2018-09-03T03:42:19.563Z,6.47
2018-09-03T03:44:48.603Z,5.77
2018-09-03T03:47:17.617Z,7.70
2018-09-03T03:49:46.696Z,9.07
2018-09-03T03:52:15.685Z,7.60
2018-09-03T03:54:44.679Z,6.00
2018-09-03T03:57:13.660Z,5.40
2018-09-03T03:59:42.801Z,7.30
2018-09-03T04:02:11.969Z,12.50
2018-09-03T04:04:40.981Z,7.33
2018-09-03T04:07:10.398Z,7.03
2018-09-03T04:09:40.011Z,7.43
2018-09-03T04:12:09.021Z,6.80
2018-09-03T04:14:38.015Z,7.43
2018-09-03T04:17:07.007Z,7.00
2018-09-03T04:19:36.105Z,7.33
2018-09-03T04:22:05.755Z,6.23
2018-09-03T04:24:34.753Z,8.97
2018-09-03T04:27:03.925Z,7.07
2018-09-03T04:29:33.124Z,7.10
2018-09-03T04:32:02.866Z,7.27
2018-09-03T04:34:31.865Z,10.43
2018-09-03T04:37:00.863Z,7.10
2018-09-03T04:39:29.923Z,8.93
2018-09-03T04:41:59.018Z,10.30
2018-09-03T04:44:28.255Z,7.67
2018-09-03T04:46:57.241Z,11.90
2018-09-03T04:49:26.255Z,9.30
2018-09-03T04:51:55.243Z,8.17
2018-09-03T04:54:24.288Z,8.17
2018-09-03T04:56:53.339Z,8.63
2018-09-03T04:59:22.425Z,8.93
2018-09-03T05:01:51.391Z,10.00
2018-09-03T05:04:20.394Z,7.73
2018-09-03T05:06:49.466Z,9.83
2018-09-03T05:09:18.537Z,10.77
2018-09-03T05:11:47.853Z,8.73
2018-09-03T05:14:17.040Z,10.17
2018-09-03T05:16:46.132Z,8.73
2018-09-03T05:19:15.132Z,7.57
2018-09-03T05:21:44.134Z,8.87
2018-09-03T05:24:13.220Z,7.30
2018-09-03T05:26:42.419Z,8.10
2018-09-03T05:29:11.429Z,11.00
2018-09-03T05:31:40.423Z,8.70
2018-09-03T05:34:09.437Z,7.80
2018-09-03T05:36:38.838Z,8.07
2018-09-03T05:39:11.180Z,10.27
2018-09-03T05:41:40.907Z,9.67
2018-09-03T05:44:10.649Z,10.20
2018-09-03T05:46:40.040Z,11.97
2018-09-03T05:49:09.208Z,8.73
2018-09-03T05:51:38.919Z,10.77
2018-09-03T05:54:08.034Z,11.53
2018-09-03T05:56:37.259Z,11.57
2018-09-03T05:59:06.743Z,11.63
2018-09-03T06:01:36.394Z,10.23
2018-09-03T06:04:05.697Z,11.13
2018-09-03T06:06:34.756Z,9.70
2018-09-03T06:09:05.039Z,9.60
2018-09-03T06:11:34.069Z,12.17
2018-09-03T06:14:05.179Z,8.00
2018-09-03T06:16:34.309Z,8.87
2018-09-03T06:19:03.408Z,14.07
2018-09-03T06:21:32.439Z,10.00
2018-09-03T06:24:01.807Z,9.53
2018-09-03T06:26:30.830Z,11.07
2018-09-03T06:28:59.808Z,12.77
2018-09-03T06:31:28.927Z,12.43
2018-09-03T06:33:57.943Z,10.47
2018-09-03T06:36:27.043Z,13.73
2018-09-03T06:38:56.189Z,11.00
2018-09-03T06:41:25.232Z,10.47
2018-09-03T06:43:54.484Z,11.37
2018-09-03T06:46:23.519Z,13.33
2018-09-03T06:48:52.533Z,12.53
2018-09-03T06:51:21.699Z,12.87
2018-09-03T06:53:50.804Z,15.43
2018-09-03T06:56:19.798Z,14.80
2018-09-03T06:58:48.852Z,11.77
2018-09-03T07:01:17.978Z,13.93
2018-09-03T07:03:47.190Z,14.20
2018-09-03T07:06:16.209Z,12.97
2018-09-03T07:08:45.821Z,14.40
2018-09-03T07:11:14.863Z,14.30
2018-09-03T07:13:47.097Z,10.80
2018-09-03T07:16:16.202Z,12.67
2018-09-03T07:18:45.612Z,14.67
2018-09-03T07:21:14.609Z,11.53
2018-09-03T07:23:43.662Z,15.00
2018-09-03T07:26:12.793Z,11.93
2018-09-03T07:28:41.874Z,20.13
2018-09-03T07:31:10.958Z,15.50
2018-09-03T07:33:40.016Z,15.73
2018-09-03T07:36:09.230Z,13.83
2018-09-03T07:38:38.370Z,18.57
2018-09-03T07:41:07.537Z,14.47
2018-09-03T07:43:36.672Z,15.10
2018-09-03T07:46:06.968Z,14.13
2018-09-03T07:48:36.004Z,13.87
2018-09-03T07:51:05.052Z,42.50
2018-09-03T07:53:35.023Z,11.27
2018-09-03T07:56:04.221Z,11.87
2018-09-03T07:58:33.313Z,13.73
2018-09-03T08:01:02.469Z,14.00
2018-09-03T08:03:31.543Z,13.20
2018-09-03T08:06:00.632Z,14.93
2018-09-03T08:08:30.718Z,15.03
2018-09-03T08:10:59.818Z,10.90
2018-09-03T08:13:33.848Z,16.10
2018-09-03T08:16:02.965Z,12.73
2018-09-03T08:18:40.767Z,16.83
2018-09-03T08:21:10.035Z,11.93
2018-09-03T08:23:39.288Z,13.90
2018-09-03T08:26:08.356Z,18.03
2018-09-03T08:28:37.481Z,16.47
2018-09-03T08:31:07.063Z,12.00
2018-09-03T08:33:36.171Z,13.37
2018-09-03T08:36:05.292Z,10.57
2018-09-03T08:38:34.385Z,12.63
2018-09-03T08:41:03.592Z,15.23
2018-09-03T08:43:32.742Z,13.40
2018-09-03T08:46:08.238Z,14.17
2018-09-03T08:48:38.521Z,13.23
2018-09-03T08:51:07.814Z,11.03
2018-09-03T08:53:37.025Z,16.77
2018-09-03T08:56:06.334Z,10.93
2018-09-03T08:58:35.826Z,11.73
2018-09-03T09:01:05.987Z,12.83
2018-09-03T09:03:42.370Z,12.80
2018-09-03T09:06:14.493Z,11.33
2018-09-03T09:08:43.654Z,11.80
2018-09-03T09:11:13.852Z,12.30
2018-09-03T09:13:42.974Z,13.03
2018-09-03T09:16:12.249Z,10.37
2018-09-03T09:18:41.386Z,10.90
2018-09-03T09:21:10.643Z,17.73
2018-09-03T09:23:40.143Z,14.47
2018-09-03T09:26:09.335Z,20.03
2018-09-03T09:28:38.502Z,13.00
2018-09-03T09:31:07.594Z,14.30
2018-09-03T09:33:36.732Z,11.17
2018-09-03T09:36:05.948Z,13.27
2018-09-03T09:38:35.141Z,11.73
2018-09-03T09:41:04.340Z,14.93
2018-09-03T09:43:33.457Z,15.23
2018-09-03T09:46:02.546Z,14.13
2018-09-03T09:48:31.643Z,12.53
2018-09-03T09:51:00.670Z,12.27
2018-09-03T09:53:31.328Z,15.77
2018-09-03T09:56:00.381Z,14.77
2018-09-03T09:58:30.696Z,11.60
2018-09-03T10:01:06.033Z,10.43
2018-09-03T10:03:36.386Z,28.13
2018-09-03T10:06:05.720Z,10.53
2018-09-03T10:08:34.743Z,7.67
2018-09-03T10:11:04.732Z,9.20
2018-09-03T10:13:33.871Z,10.30
2018-09-03T10:16:03.130Z,9.60
2018-09-03T10:18:32.238Z,10.60
2018-09-03T10:21:01.401Z,9.50
2018-09-03T10:23:31.017Z,7.27
2018-09-03T10:26:00.287Z,5.90
2018-09-03T10:28:29.485Z,3.83
2018-09-03T10:30:58.532Z,3.30
2018-09-03T10:33:27.632Z,1.23
2018-09-03T10:35:56.824Z,1.37
2018-09-03T10:38:25.894Z,1.80
2018-09-03T10:40:55.771Z,0.70
2018-09-03T10:43:25.118Z,0.97
2018-09-03T10:45:54.329Z,2.60
2018-09-03T10:48:23.397Z,0.80
2018-09-03T10:50:53.051Z,0.80
2018-09-03T10:53:22.171Z,0.20
2018-09-03T10:55:54.500Z,1.90
2018-09-03T11:01:17.277Z,0.60
2018-09-03T11:03:47.216Z,0.60
2018-09-03T11:06:16.288Z,1.70
2018-09-03T11:08:49.768Z,2.07
2018-09-03T11:11:32.667Z,5.93
2018-09-03T11:14:02.427Z,0.23
2018-09-03T11:19:22.190Z,0.43
2018-09-03T11:21:51.332Z,0.40
2018-09-03T11:24:20.487Z,1.73
2018-09-03T11:27:00.677Z,0.57
2018-09-03T11:29:30.845Z,1.47
2018-09-03T11:32:00.105Z,0.33
2018-09-03T11:34:34.434Z,1.47
2018-09-03T11:37:04.411Z,1.97
2018-09-03T11:39:33.508Z,3.50
2018-09-03T11:42:03.049Z,3.00
2018-09-03T11:44:32.984Z,1.27
2018-09-03T11:47:03.231Z,1.50
2018-09-03T11:49:32.731Z,1.23
2018-09-03T11:52:02.736Z,2.17
2018-09-03T11:54:32.122Z,3.03
2018-09-03T11:57:02.250Z,5.57
2018-09-03T11:59:31.349Z,4.43
2018-09-03T12:02:00.702Z,2.67
2018-09-03T12:04:30.125Z,1.17
2018-09-03T12:06:59.350Z,0.30
2018-09-03T12:09:28.472Z,4.87
2018-09-03T12:11:57.650Z,0.50
2018-09-03T12:14:31.686Z,2.83
2018-09-03T12:17:02.326Z,1.87
2018-09-03T12:19:31.453Z,0.67
2018-09-03T12:22:02.172Z,1.13
2018-09-03T12:24:31.231Z,2.80
2018-09-03T12:27:04.717Z,3.90
2018-09-03T12:29:34.035Z,0.77
2018-09-03T12:32:03.109Z,1.63
2018-09-03T12:34:32.236Z,3.57
2018-09-03T12:37:01.468Z,1.17
2018-09-03T12:39:32.088Z,2.30
2018-09-03T12:42:01.215Z,3.03
2018-09-03T12:44:30.437Z,2.23
2018-09-03T12:47:00.292Z,3.37
2018-09-03T12:49:37.362Z,4.53
2018-09-03T12:52:06.564Z,4.00
2018-09-03T12:54:35.600Z,3.43
2018-09-03T12:59:49.134Z,3.60
2018-09-03T13:02:18.198Z,1.80
2018-09-03T13:04:47.487Z,2.43
2018-09-03T13:07:17.177Z,3.40
2018-09-03T13:09:46.265Z,7.57
2018-09-03T13:12:15.516Z,2.47
2018-09-03T13:14:45.013Z,3.03
2018-09-03T13:17:14.323Z,6.30
2018-09-03T13:19:44.742Z,2.70
2018-09-03T13:22:13.905Z,5.67
2018-09-03T13:24:43.083Z,5.70
2018-09-03T13:27:12.501Z,1.33
2018-09-03T13:29:42.262Z,3.13
2018-09-03T13:32:12.893Z,3.03
2018-09-03T13:34:42.125Z,1.40
2018-09-03T13:37:12.332Z,2.07
2018-09-03T13:39:41.540Z,4.63
2018-09-03T13:42:16.136Z,3.53
2018-09-03T13:44:45.736Z,6.23
2018-09-03T13:47:15.097Z,6.10
2018-09-03T13:49:44.351Z,7.53
2018-09-03T13:52:30.739Z,6.20
2018-09-03T13:55:02.109Z,6.43
2018-09-03T14:00:42.742Z,3.93
2018-09-03T14:03:23.435Z,7.83
2018-09-03T14:06:02.233Z,4.30
2018-09-03T14:14:32.142Z,7.03
2018-09-03T14:20:25.263Z,7.03
2018-09-03T14:37:03.565Z,7.63
2018-09-03T14:39:35.308Z,5.93
2018-09-03T14:44:58.367Z,5.00
2018-09-03T14:47:27.378Z,10.33
2018-09-03T14:49:56.872Z,3.60
2018-09-03T14:52:27.263Z,5.80
2018-09-03T14:55:14.289Z,7.57
2018-09-03T14:57:43.549Z,6.93
2018-09-03T15:00:13.599Z,3.63
2018-09-03T15:02:42.625Z,5.47
2018-09-03T15:05:11.639Z,8.57
2018-09-03T15:07:40.724Z,7.37
2018-09-03T15:10:09.864Z,9.63
2018-09-03T15:12:39.534Z,9.30
2018-09-03T15:15:08.651Z,8.73
2018-09-03T15:17:40.302Z,9.53
2018-09-03T15:20:37.719Z,3.37
2018-09-03T15:26:25.562Z,5.10
2018-09-03T15:28:54.999Z,5.43
2018-09-03T15:31:24.013Z,6.40
2018-09-03T15:33:53.319Z,9.67
2018-09-03T15:36:23.638Z,8.27
2018-09-03T15:38:53.095Z,6.10
2018-09-03T15:41:22.123Z,10.13
2018-09-03T15:43:51.208Z,6.60
2018-09-03T15:46:20.424Z,5.00
2018-09-03T15:48:49.576Z,8.27
2018-09-03T15:51:18.695Z,5.13
2018-09-03T15:53:48.220Z,7.37
2018-09-03T15:56:17.333Z,7.10
2018-09-03T15:58:46.493Z,7.93
2018-09-03T16:01:15.755Z,6.43
2018-09-03T16:03:45.034Z,7.57
2018-09-03T16:06:14.220Z,13.57
2018-09-03T16:08:46.016Z,10.67
2018-09-03T16:11:15.256Z,8.07
2018-09-03T16:13:44.475Z,7.43
2018-09-03T16:16:13.665Z,8.63
2018-09-03T16:18:58.537Z,7.97
2018-09-03T16:21:28.177Z,7.80
2018-09-03T16:23:57.165Z,7.83
2018-09-03T16:26:26.200Z,7.60
2018-09-03T16:28:55.272Z,14.13
2018-09-03T16:31:24.377Z,8.77
2018-09-03T16:33:53.661Z,6.13
2018-09-03T16:36:22.686Z,10.43
2018-09-03T16:38:52.043Z,4.93
2018-09-03T16:41:21.164Z,8.03
2018-09-03T16:43:50.222Z,10.10
2018-09-03T16:46:19.243Z,5.47
2018-09-03T16:48:48.396Z,9.07
2018-09-03T16:51:17.535Z,6.72
2018-09-03T16:53:46.571Z,8.83
2018-09-03T16:56:15.589Z,6.03
2018-09-03T16:58:44.634Z,8.80
2018-09-03T17:01:14.486Z,11.47
2018-09-03T17:03:44.431Z,6.33
2018-09-03T17:06:13.690Z,12.60
2018-09-03T17:08:43.156Z,7.30
2018-09-03T17:11:12.209Z,7.10
2018-09-03T17:13:41.385Z,6.87
2018-09-03T17:16:10.569Z,4.10
2018-09-03T17:18:40.302Z,6.33
2018-09-03T17:21:09.329Z,6.27
2018-09-03T17:23:38.456Z,6.63
2018-09-03T17:26:07.428Z,11.23
2018-09-03T17:28:36.917Z,5.50
2018-09-03T17:31:05.923Z,8.73
2018-09-03T17:33:35.122Z,5.40
2018-09-03T17:36:05.052Z,5.80
2018-09-03T17:38:34.111Z,5.33
2018-09-03T17:41:03.124Z,11.63
2018-09-03T17:43:32.220Z,6.63
2018-09-03T17:46:01.281Z,9.47
2018-09-03T17:48:30.475Z,8.77
2018-09-03T17:50:59.955Z,4.60
2018-09-03T17:53:29.524Z,9.70
2018-09-03T17:56:58.638Z,7.43
2018-09-03T18:02:19.760Z,9.50
2018-09-03T18:04:48.808Z,8.23
2018-09-03T18:07:18.876Z,9.53
2018-09-03T18:09:48.140Z,11.70
2018-09-03T18:12:17.158Z,7.10
2018-09-03T18:14:46.262Z,5.73
2018-09-03T18:17:15.381Z,8.00
2018-09-03T18:19:44.401Z,5.27
2018-09-03T18:22:13.423Z,4.13
2018-09-03T18:24:42.416Z,6.90
2018-09-03T18:27:12.492Z,4.83
2018-09-03T18:29:41.636Z,11.87
2018-09-03T18:32:10.668Z,7.93
2018-09-03T18:34:40.050Z,5.97
2018-09-03T18:37:10.611Z,5.40
2018-09-03T18:39:40.050Z,7.50
2018-09-03T18:42:08.637Z,10.07
2018-09-03T18:44:38.622Z,6.27
2018-09-03T18:47:08.786Z,9.83
2018-09-03T18:49:38.381Z,4.83
2018-09-03T18:52:07.440Z,6.03
2018-09-03T18:54:37.228Z,8.07
2018-09-03T18:57:06.440Z,6.53
2018-09-03T18:59:35.526Z,7.33
2018-09-03T19:02:04.687Z,7.33
2018-09-03T19:04:33.787Z,6.57
2018-09-03T19:07:02.900Z,7.30
2018-09-03T19:09:31.907Z,12.07
2018-09-03T19:12:01.382Z,9.97
2018-09-03T19:14:30.410Z,9.07
2018-09-03T19:16:59.419Z,7.33
2018-09-03T19:19:28.799Z,9.80
2018-09-03T19:21:57.880Z,24.40
2018-09-03T19:24:27.006Z,8.77
2018-09-03T19:26:56.621Z,6.53
2018-09-03T19:29:25.644Z,7.67
2018-09-03T19:31:55.762Z,8.07
2018-09-03T19:34:24.801Z,7.13
2018-09-03T19:36:54.179Z,4.97
2018-09-03T19:39:23.210Z,8.80
2018-09-03T19:41:52.202Z,6.17
2018-09-03T19:44:21.198Z,7.97
2018-09-03T19:46:51.076Z,6.90
2018-09-03T19:49:26.637Z,8.67
2018-09-03T19:51:55.797Z,7.37
2018-09-03T19:54:24.819Z,9.17
2018-09-03T19:56:58.920Z,8.73
2018-09-03T19:59:27.982Z,6.13
2018-09-03T20:01:57.060Z,5.50
2018-09-03T20:04:26.085Z,4.30
2018-09-03T20:06:55.091Z,7.90
2018-09-03T20:09:24.083Z,6.23
2018-09-03T20:11:53.196Z,9.90
2018-09-03T20:14:22.421Z,5.73
2018-09-03T20:16:52.300Z,7.17
2018-09-03T20:19:21.533Z,7.33
2018-09-03T20:21:50.844Z,5.60
2018-09-03T20:24:20.876Z,8.27
2018-09-03T20:26:49.911Z,8.37
2018-09-03T20:29:20.581Z,10.10
2018-09-03T20:31:49.927Z,6.23
2018-09-03T20:34:18.944Z,6.20
2018-09-03T20:36:48.007Z,9.73
2018-09-03T20:39:17.090Z,6.03
2018-09-03T20:41:46.210Z,7.20
2018-09-03T20:44:15.344Z,11.37
2018-09-03T20:46:44.420Z,5.33
2018-09-03T20:49:13.515Z,7.40
2018-09-03T20:51:42.719Z,8.13
2018-09-03T20:54:11.784Z,8.70
2018-09-03T20:56:40.881Z,7.10
2018-09-03T20:59:09.981Z,9.53
2018-09-03T21:01:39.203Z,8.57
2018-09-03T21:04:08.536Z,4.27
2018-09-03T21:06:37.643Z,3.47
2018-09-03T21:09:08.125Z,9.70
2018-09-03T21:11:37.253Z,8.27
2018-09-03T21:14:07.230Z,11.50
2018-09-03T21:16:36.718Z,5.97
2018-09-03T21:19:05.969Z,13.87
2018-09-03T21:21:35.880Z,5.90
2018-09-03T21:24:04.897Z,5.07
2018-09-03T21:26:34.667Z,9.03
2018-09-03T21:29:03.726Z,5.20
2018-09-03T21:31:32.787Z,8.07
2018-09-03T21:34:01.850Z,3.50
2018-09-03T21:36:30.850Z,6.03
2018-09-03T21:39:01.735Z,9.20
2018-09-03T21:41:30.874Z,5.97
2018-09-03T21:43:59.980Z,7.13
2018-09-03T21:46:29.091Z,7.03
2018-09-03T21:48:58.105Z,8.93
2018-09-03T21:51:27.139Z,4.53
2018-09-03T21:53:56.148Z,8.50
2018-09-03T21:56:25.171Z,7.70
2018-09-03T21:58:54.188Z,6.77
2018-09-03T22:01:23.538Z,5.67
2018-09-03T22:03:52.587Z,8.37
2018-09-03T22:06:21.563Z,6.70
2018-09-03T22:08:50.500Z,6.50
2018-09-03T22:11:19.541Z,10.70
2018-09-03T22:13:49.392Z,10.10
2018-09-03T22:16:18.392Z,7.90
2018-09-03T22:19:03.001Z,4.67
2018-09-03T22:21:52.255Z,6.00
2018-09-03T22:24:36.033Z,6.57
2018-09-03T22:27:08.763Z,4.33
2018-09-03T22:29:40.835Z,3.43
2018-09-03T22:32:20.539Z,6.23
2018-09-03T22:35:04.098Z,6.63
2018-09-03T22:37:49.686Z,4.13
2018-09-03T22:40:18.812Z,4.67
2018-09-03T22:43:03.201Z,10.03
2018-09-03T22:45:32.414Z,3.97
2018-09-03T22:48:13.905Z,4.93
2018-09-03T22:50:59.585Z,3.23
2018-09-03T22:53:44.972Z,6.10
2018-09-03T22:56:14.290Z,6.20
2018-09-03T22:58:44.008Z,7.87
2018-09-03T23:01:26.405Z,2.00
2018-09-03T23:04:13.128Z,5.60
2018-09-03T23:06:59.342Z,5.77
2018-09-03T23:09:29.043Z,7.43
2018-09-03T23:12:07.936Z,6.63
2018-09-03T23:14:53.406Z,4.37
2018-09-03T23:17:22.386Z,5.07
2018-09-03T23:19:51.525Z,5.03
2018-09-03T23:22:20.568Z,7.03
2018-09-03T23:24:49.644Z,8.37
2018-09-03T23:27:18.668Z,3.57
2018-09-03T23:29:47.665Z,8.50
2018-09-03T23:32:16.697Z,5.43
2018-09-03T23:34:45.697Z,5.63
2018-09-03T23:37:14.696Z,8.37
2018-09-03T23:39:43.693Z,9.70
2018-09-03T23:42:12.756Z,4.47
2018-09-03T23:44:41.800Z,6.27
2018-09-03T23:47:11.101Z,5.53
2018-09-03T23:49:40.771Z,9.87
2018-09-03T23:52:09.840Z,7.37
2018-09-03T23:54:38.995Z,10.93
2018-09-03T23:57:08.048Z,7.63
2018-09-03T23:59:37.692Z,8.23
